Darstellungsparameter: Aktuell verwendete Einstellungen:
Skalierung der Graphiken ... ?
xyx+y,   Skalierungsfaktor:      Skalierung: Modus: x, Faktor: 1
Darstellungszeitraum ... ?
Vom - - bis: - -   Zeitraum: 28.08.2009 - 28.08.2009
Min/Max/Avg-Anzeige ... ?
Zeige MMA aktuell
Zeige MMA Monat
Zeige MMA alles
Zeige --A aktuell
Zeige --A Monat
Zeige --A alles
Keine MMA-Anzeige
MMA:
Keine MMA-Graphiken
MMA-Basis: 28.08.2009 - 28.08.2009
Quicknavigation für Darstellung... ?
Tage:      1T, 2T, 3T, 5T -1T -2T -3T -5T +1T +2T +3T +5T
Wochen: 1W, 2W, 3W -1W -2W -3W +1W +2W +3W
Monate: 1M, 3M, 6M -1M -3M -6M +1M +3M +6M
Jahre:    1J, 3J, 5J, 10J -1J -3J -5J -10J +1J +3J +5J +10J
Nutze für die Darstellung ... ?
Originaldaten oder Mittelwerte auf ...
Stundenbasis Tagesbasis Wochenbasis
Monatsbasis Jahresbasis      Datenbasis: Original-Daten
Darstellen als:
Statistik (Auto) Statistik J:M      Darstellung:
Zur Graphik,    zurück zur Übersicht aller Sensoren.
 
Tabellarische Datenbersicht: ?
 
Sensor: Nr:Datum:Temp:Feuchte:Taupunkt:
Aussen-T/F 1 28-08-2009 00:05:03 22.1 C 51 % 11.5 C
2 28-08-2009 00:17:03 22 C 51 % 11.4 C
3 28-08-2009 00:29:03 22 C 52 % 11.7 C
4 28-08-2009 00:41:03 22 C 52 % 11.7 C
5 28-08-2009 00:53:04 21.9 C 53 % 11.89 C
6 28-08-2009 01:05:04 21.8 C 54 % 12.08 C
7 28-08-2009 01:17:04 21.6 C 54 % 11.9 C
8 28-08-2009 01:29:04 21.3 C 55 % 11.9 C
9 28-08-2009 01:41:04 21.3 C 56 % 12.17 C
10 28-08-2009 01:53:04 21.2 C 56 % 12.08 C
11 28-08-2009 02:05:04 21 C 56 % 11.89 C
12 28-08-2009 02:17:04 21 C 57 % 12.16 C
13 28-08-2009 02:29:04 20.9 C 58 % 12.33 C
14 28-08-2009 02:41:04 20.9 C 58 % 12.33 C
15 28-08-2009 02:53:04 20.8 C 58 % 12.24 C
16 28-08-2009 03:05:04 20.8 C 58 % 12.24 C
17 28-08-2009 03:17:04 20.8 C 59 % 12.5 C
18 28-08-2009 03:29:04 20.6 C 59 % 12.31 C
19 28-08-2009 03:41:04 20.4 C 60 % 12.38 C
20 28-08-2009 03:53:04 20.4 C 60 % 12.38 C
21 28-08-2009 04:05:04 20.4 C 60 % 12.38 C
22 28-08-2009 04:17:04 20.3 C 60 % 12.29 C
23 28-08-2009 04:29:04 20.1 C 60 % 12.1 C
24 28-08-2009 04:41:04 20 C 61 % 12.26 C
25 28-08-2009 04:53:05 20 C 61 % 12.26 C
Sensor: Nr:Datum:Temp:Feuchte:Taupunkt:
Aussen-T/F 26 28-08-2009 05:05:05 19.8 C 62 % 12.31 C
27 28-08-2009 05:17:05 19.7 C 63 % 12.46 C
28 28-08-2009 05:29:05 19.7 C 63 % 12.46 C
29 28-08-2009 05:41:05 19.6 C 64 % 12.61 C
30 28-08-2009 05:53:05 19.5 C 64 % 12.51 C
31 28-08-2009 06:05:05 19.6 C 63 % 12.37 C
32 28-08-2009 06:17:05 19.7 C 62 % 12.22 C
33 28-08-2009 06:29:05 19.6 C 62 % 12.13 C
34 28-08-2009 06:41:05 19.5 C 63 % 12.27 C
35 28-08-2009 06:53:05 19.3 C 64 % 12.32 C
36 28-08-2009 07:05:03 19.2 C 65 % 12.47 C
37 28-08-2009 07:17:03 19.2 C 66 % 12.7 C
38 28-08-2009 07:29:03 19.4 C 65 % 12.66 C
39 28-08-2009 07:41:03 19.5 C 65 % 12.75 C
40 28-08-2009 07:53:02 19.5 C 65 % 12.75 C
41 28-08-2009 08:05:02 19.7 C 65 % 12.94 C
42 28-08-2009 08:17:02 20.2 C 63 % 12.94 C
43 28-08-2009 08:29:02 20.1 C 63 % 12.84 C
44 28-08-2009 08:41:02 20.3 C 62 % 12.79 C
45 28-08-2009 08:53:01 20.6 C 61 % 12.82 C
46 28-08-2009 09:05:02 21 C 59 % 12.69 C
47 28-08-2009 09:17:01 21.3 C 55 % 11.9 C
48 28-08-2009 09:29:01 21.7 C 53 % 11.71 C
49 28-08-2009 09:41:01 21.8 C 53 % 11.8 C
50 28-08-2009 09:53:01 22.1 C 51 % 11.5 C
Sensor: Nr:Datum:Temp:Feuchte:Taupunkt:
Aussen-T/F 51 28-08-2009 10:05:02 22.3 C 50 % 11.38 C
52 28-08-2009 10:17:01 22 C 51 % 11.4 C
53 28-08-2009 10:29:01 21.8 C 53 % 11.8 C
54 28-08-2009 10:41:02 21.9 C 51 % 11.31 C
55 28-08-2009 10:53:01 22.1 C 49 % 10.89 C
56 28-08-2009 11:05:02 22.1 C 49 % 10.89 C
57 28-08-2009 11:17:02 22.7 C 47 % 10.81 C
58 28-08-2009 11:29:02 22.4 C 48 % 10.86 C
59 28-08-2009 11:41:02 22.4 C 45 % 9.89 C
60 28-08-2009 11:53:01 23.1 C 40 % 8.77 C
61 28-08-2009 12:05:02 23.2 C 39 % 8.49 C
62 28-08-2009 12:17:02 23.3 C 37 % 7.8 C
63 28-08-2009 12:29:02 23.9 C 36 % 7.93 C
64 28-08-2009 12:41:02 23.8 C 35 % 7.43 C
65 28-08-2009 12:53:01 23.4 C 36 % 7.49 C
66 28-08-2009 13:05:02 22.9 C 37 % 7.45 C
67 28-08-2009 13:17:02 22.3 C 40 % 8.06 C
68 28-08-2009 13:29:02 21.8 C 42 % 8.33 C
69 28-08-2009 13:41:01 22 C 41 % 8.15 C
70 28-08-2009 13:53:02 22.8 C 41 % 8.87 C
71 28-08-2009 14:05:01 24 C 37 % 8.42 C
72 28-08-2009 14:17:02 24.2 C 37 % 8.6 C
73 28-08-2009 14:29:02 24.2 C 35 % 7.78 C
74 28-08-2009 14:41:01 24.5 C 35 % 8.05 C
75 28-08-2009 14:53:02 24.6 C 35 % 8.13 C
Sensor: Nr:Datum:Temp:Feuchte:Taupunkt:
Aussen-T/F 76 28-08-2009 15:05:01 24.3 C 35 % 7.87 C
77 28-08-2009 15:17:01 24.9 C 32 % 7.08 C
78 28-08-2009 15:29:01 25.3 C 30 % 6.49 C
79 28-08-2009 15:41:01 25.5 C 28 % 5.67 C
80 28-08-2009 15:53:02 25.7 C 27 % 5.31 C
81 28-08-2009 16:05:02 25.3 C 28 % 5.49 C
82 28-08-2009 16:17:02 25.4 C 26 % 4.52 C
83 28-08-2009 16:29:02 25.7 C 25 % 4.21 C
84 28-08-2009 16:41:02 25.7 C 25 % 4.21 C
85 28-08-2009 16:53:02 24.7 C 27 % 4.46 C
86 28-08-2009 17:05:02 24.9 C 26 % 4.09 C
87 28-08-2009 17:17:01 24.8 C 25 % 3.45 C
88 28-08-2009 17:29:01 24.7 C 25 % 3.37 C
89 28-08-2009 17:41:02 24.8 C 23 % 2.28 C
90 28-08-2009 17:53:02 23.7 C 25 % 2.53 C
91 28-08-2009 18:05:02 25.1 C 22 % 1.91 C
92 28-08-2009 18:17:02 24.8 C 20 % 0.34 C
93 28-08-2009 18:29:02 25.1 C 20 % 0.59 C
94 28-08-2009 18:41:02 24.5 C 20 % 0.09 C
95 28-08-2009 18:53:01 24 C 20 % -0.32 C
96 28-08-2009 19:05:02 23.7 C 23 % 1.36 C
97 28-08-2009 19:17:01 23.4 C 24 % 1.7 C
98 28-08-2009 19:29:01 22.9 C 25 % 1.85 C
99 28-08-2009 19:41:01 22.5 C 25 % 1.51 C
100 28-08-2009 19:53:01 22.4 C 26 % 1.97 C
Sensor: Nr:Datum:Temp:Feuchte:Taupunkt:
Aussen-T/F 101 28-08-2009 20:05:02 21.4 C 26 % 1.12 C
102 28-08-2009 20:17:01 20.8 C 29 % 2.13 C
103 28-08-2009 20:29:01 20.5 C 30 % 2.35 C
104 28-08-2009 20:41:02 20.2 C 31 % 2.55 C
105 28-08-2009 20:53:01 19.9 C 32 % 2.73 C
106 28-08-2009 21:05:02 19.7 C 32 % 2.56 C
107 28-08-2009 21:17:01 19.5 C 33 % 2.82 C
108 28-08-2009 21:29:01 19.4 C 32 % 2.3 C
109 28-08-2009 21:41:02 19.1 C 34 % 2.89 C
110 28-08-2009 21:53:01 18.9 C 35 % 3.12 C
111 28-08-2009 22:06:02 18.6 C 36 % 3.25 C
112 28-08-2009 22:18:02 18.4 C 38 % 3.84 C
113 28-08-2009 22:30:03 18.1 C 38 % 3.57 C
114 28-08-2009 22:42:03 17.9 C 40 % 4.12 C
115 28-08-2009 22:54:03 17.7 C 40 % 3.95 C
116 28-08-2009 23:06:03 17.8 C 40 % 4.03 C
117 28-08-2009 23:18:03 17.7 C 39 % 3.59 C
118 28-08-2009 23:30:03 17.6 C 39 % 3.5 C
119 28-08-2009 23:42:03 17.4 C 40 % 3.68 C
120 28-08-2009 23:54:03 17.4 C 40 % 3.68 C

Legende:
   Min
   Max


Maximal/Minimal-Werte vom 28.08.2009 - 28.08.2009

Sensor Min Max Avg
Temp
(Aussen-T/F)
17.4 °C
28-08-2009  23:42:03
25.7 °C
28-08-2009  15:53:02
21.61 °C
Feuchte
(Aussen-T/F)
20 %
28-08-2009  18:17:02
66 %
28-08-2009  07:17:03
44.52 %
Taupunkt
(Aussen-T/F)
-0.32 C
28-08-2009  18:53:01
12.94 C
28-08-2009  08:05:02
8.15 C

Die Daten stammen von einer Davis Vantage Pro 2 Wetter-Station und werden unter Linux mit der Software wview2wettercgi und aufbereitet. Alle Angaben erfolgen ohne Gewähr für ihre Vollständigkeit oder Richtigkeit.
Kontakt: Rainer Krienke krienke@uni-koblenz.de . Meine Webseiten an der Uni Koblenz oder privat.
Version: $Revision: 0.78 $